createdAt,value
2023-02-01T01:33:03.522Z,101150.78
2023-02-01T01:35:39.621Z,101138.00
2023-02-01T01:38:07.393Z,101137.03
2023-02-01T01:40:49.352Z,101143.84
2023-02-01T01:43:20.599Z,101144.94
2023-02-01T01:45:48.568Z,101141.47
2023-02-01T01:48:22.779Z,101134.25
2023-02-01T01:50:53.730Z,101127.84
2023-02-01T01:53:26.914Z,101112.88
2023-02-01T01:55:57.807Z,101115.69
2023-02-01T01:58:29.423Z,101114.66
2023-02-01T02:01:00.259Z,101105.97
2023-02-01T02:03:36.927Z,101112.03
2023-02-01T02:06:17.753Z,101103.91
2023-02-01T02:08:46.728Z,101102.50
2023-02-01T02:11:18.188Z,101088.66
2023-02-01T02:13:55.713Z,101092.16
2023-02-01T02:16:55.147Z,101084.59
2023-02-01T02:19:54.446Z,101084.53
2023-02-01T02:22:57.723Z,101084.91
2023-02-01T02:25:47.641Z,101081.13
2023-02-01T02:28:56.099Z,101067.88
2023-02-01T02:31:45.194Z,101059.94
2023-02-01T02:34:23.767Z,101058.81
2023-02-01T02:37:03.728Z,101059.94
2023-02-01T02:39:43.427Z,101043.19
2023-02-01T02:42:33.156Z,101054.00
2023-02-01T02:45:26.936Z,101039.22
2023-02-01T02:48:06.950Z,101037.50
2023-02-01T02:51:08.217Z,101038.53
2023-02-01T02:54:00.366Z,101026.31
2023-02-01T02:56:47.181Z,101036.94
2023-02-01T02:59:37.633Z,101036.09
2023-02-01T03:02:22.800Z,101031.47
2023-02-01T03:04:59.230Z,101034.97
2023-02-01T03:08:04.082Z,101030.06
2023-02-01T03:10:51.431Z,101021.31
2023-02-01T03:13:27.268Z,101024.97
2023-02-01T03:16:03.612Z,101028.94
2023-02-01T03:18:39.019Z,101019.63
2023-02-01T03:21:34.616Z,101024.59
2023-02-01T03:24:11.729Z,101010.75
2023-02-01T03:26:50.325Z,101012.63
2023-02-01T03:29:36.708Z,101002.56
2023-02-01T03:32:04.640Z,100994.91
2023-02-01T03:34:58.607Z,100998.59
2023-02-01T03:37:30.641Z,100984.31
2023-02-01T03:40:04.252Z,100985.16
2023-02-01T03:42:41.642Z,100984.94
2023-02-01T03:45:20.727Z,100988.97
2023-02-01T03:47:58.095Z,100985.47
2023-02-01T03:50:27.967Z,100991.91
2023-02-01T03:53:02.404Z,100994.44
2023-02-01T03:55:39.073Z,100999.53
2023-02-01T03:58:14.718Z,100989.41
2023-02-01T04:00:48.062Z,100990.72
2023-02-01T04:03:17.973Z,100986.84
2023-02-01T04:05:52.604Z,100993.66
2023-02-01T04:08:48.087Z,100989.38
2023-02-01T04:11:20.117Z,100987.34
2023-02-01T04:13:50.709Z,100991.50
2023-02-01T04:16:19.222Z,100983.31
2023-02-01T04:18:47.129Z,100979.59
2023-02-01T04:21:14.966Z,100980.75
2023-02-01T04:23:43.735Z,100966.69
2023-02-01T04:29:05.635Z,100977.63
2023-02-01T04:31:37.824Z,100969.44
2023-02-01T04:34:08.200Z,100966.50
2023-02-01T04:36:39.630Z,100962.63
2023-02-01T04:39:40.629Z,100963.38
2023-02-01T04:42:14.631Z,100944.44
2023-02-01T04:47:30.755Z,100969.56
2023-02-01T04:50:00.234Z,100957.75
2023-02-01T04:52:29.045Z,100952.16
2023-02-01T04:55:04.635Z,100961.41
2023-02-01T04:57:35.735Z,100966.81
2023-02-01T05:00:30.447Z,100969.56
2023-02-01T05:03:05.634Z,100965.47
2023-02-01T05:05:37.093Z,100961.53
2023-02-01T05:08:05.609Z,100959.63
2023-02-01T05:10:36.805Z,100974.03
2023-02-01T05:13:25.613Z,100972.09
2023-02-01T05:15:54.642Z,100962.41
2023-02-01T05:18:22.299Z,100944.13
2023-02-01T05:20:50.396Z,100950.56
2023-02-01T05:23:22.727Z,100944.44
2023-02-01T05:25:51.357Z,100950.88
2023-02-01T05:28:43.548Z,100946.44
2023-02-01T05:31:15.884Z,100940.41
2023-02-01T05:34:09.288Z,100943.59
2023-02-01T05:36:45.076Z,100935.97
2023-02-01T05:39:14.093Z,100928.91
2023-02-01T05:41:41.891Z,100932.50
2023-02-01T05:44:09.641Z,100923.91
2023-02-01T05:46:40.684Z,100928.81
2023-02-01T05:49:09.184Z,100919.50
2023-02-01T05:51:41.936Z,100927.22
2023-02-01T05:54:10.721Z,100928.22
2023-02-01T05:56:38.513Z,100922.78
2023-02-01T05:59:06.726Z,100910.72
2023-02-01T06:01:41.699Z,100926.28
2023-02-01T06:04:11.596Z,100931.81
2023-02-01T06:06:39.255Z,100919.50
2023-02-01T06:09:15.052Z,100923.84
2023-02-01T06:14:29.387Z,100936.81
2023-02-01T06:17:00.632Z,100926.38
2023-02-01T06:19:33.093Z,100943.59
2023-02-01T06:22:12.600Z,100945.69
2023-02-01T06:24:40.598Z,100941.38
2023-02-01T06:27:12.808Z,100942.59
2023-02-01T06:30:07.861Z,100943.63
2023-02-01T06:32:36.566Z,100945.25
2023-02-01T06:35:19.472Z,100964.91
2023-02-01T06:37:47.896Z,100953.72
2023-02-01T06:40:19.342Z,100953.63
2023-02-01T06:42:50.652Z,100966.13
2023-02-01T06:45:24.701Z,100960.88
2023-02-01T06:47:54.242Z,100959.56
2023-02-01T06:50:48.247Z,100970.78
2023-02-01T06:53:19.745Z,100969.72
2023-02-01T06:55:56.724Z,100970.09
2023-02-01T06:58:29.104Z,100974.72
2023-02-01T07:01:01.839Z,100990.84
2023-02-01T07:03:32.862Z,100968.72
2023-02-01T07:09:04.873Z,100981.06
2023-02-01T07:11:38.383Z,100991.41
2023-02-01T07:14:10.622Z,100991.50
2023-02-01T07:16:48.054Z,101000.44
2023-02-01T07:19:15.804Z,100987.63
2023-02-01T07:21:52.020Z,100984.44
2023-02-01T07:24:19.673Z,100993.00
2023-02-01T07:27:21.637Z,101002.13
2023-02-01T07:29:56.464Z,101005.16
2023-02-01T07:32:24.716Z,101003.66
2023-02-01T07:34:52.404Z,101007.69
2023-02-01T07:37:21.535Z,101012.97
2023-02-01T07:39:52.416Z,101020.69
2023-02-01T07:42:22.196Z,101012.72
2023-02-01T07:44:53.792Z,101015.88
2023-02-01T07:47:21.979Z,101022.28
2023-02-01T07:49:49.707Z,101012.94
2023-02-01T07:52:17.683Z,101018.41
2023-02-01T07:54:49.832Z,101020.66
2023-02-01T07:57:17.711Z,101012.94
2023-02-01T07:59:59.656Z,101031.22
2023-02-01T08:02:40.671Z,101016.88
2023-02-01T08:05:09.646Z,101017.50
2023-02-01T08:07:38.644Z,101019.88
2023-02-01T08:10:11.628Z,101019.22
2023-02-01T08:12:39.638Z,101034.50
2023-02-01T08:15:08.525Z,101017.31
2023-02-01T08:17:38.501Z,101021.88
2023-02-01T08:20:09.043Z,101024.03
2023-02-01T08:22:36.755Z,101013.72
2023-02-01T08:25:07.719Z,101030.44
2023-02-01T08:27:50.023Z,101035.50
2023-02-01T08:30:25.803Z,101037.19
2023-02-01T08:32:53.722Z,101045.03
2023-02-01T08:35:30.544Z,101041.06
2023-02-01T08:38:09.509Z,101042.97
2023-02-01T08:40:40.834Z,101036.22
2023-02-01T08:43:17.608Z,101042.69
2023-02-01T08:46:16.027Z,101037.53
2023-02-01T08:48:43.981Z,101033.19
2023-02-01T08:51:14.662Z,101038.38
2023-02-01T08:53:44.959Z,101030.16
2023-02-01T08:56:14.740Z,101033.97
2023-02-01T08:59:09.655Z,101037.44
2023-02-01T09:01:38.877Z,101036.72
2023-02-01T09:04:12.707Z,101035.97
2023-02-01T09:06:42.903Z,101031.75
2023-02-01T09:09:17.719Z,101030.50
2023-02-01T09:11:53.299Z,101026.91
2023-02-01T09:14:22.683Z,101022.47
2023-02-01T09:16:50.298Z,101018.38
2023-02-01T09:19:26.931Z,101023.97
2023-02-01T09:24:51.363Z,101027.44
2023-02-01T09:27:23.683Z,101019.00
2023-02-01T09:30:21.620Z,101013.00
2023-02-01T09:32:51.248Z,101008.31
2023-02-01T09:35:19.047Z,101006.56
2023-02-01T09:37:48.645Z,101003.78
2023-02-01T09:40:18.839Z,100994.19
2023-02-01T09:43:07.680Z,100993.94
2023-02-01T09:45:45.724Z,100996.41
2023-02-01T09:48:19.654Z,101000.72
2023-02-01T09:50:51.743Z,100991.22
2023-02-01T09:53:26.647Z,100992.28
2023-02-01T09:55:58.877Z,100986.97
2023-02-01T09:58:32.784Z,100991.44
2023-02-01T10:01:04.999Z,100983.59
2023-02-01T10:03:36.220Z,100992.63
2023-02-01T10:06:30.120Z,100970.50
2023-02-01T10:09:14.953Z,100985.41
2023-02-01T10:11:56.499Z,100993.56
2023-02-01T10:14:55.751Z,100989.75
2023-02-01T10:17:43.877Z,100990.81
2023-02-01T10:20:19.978Z,100985.72
2023-02-01T10:23:13.651Z,100989.28
2023-02-01T10:25:49.755Z,100986.66
2023-02-01T10:28:19.361Z,100984.41
2023-02-01T10:30:51.204Z,100982.13
2023-02-01T10:33:27.939Z,100989.72
2023-02-01T10:36:00.776Z,100989.50
2023-02-01T10:38:30.839Z,100996.38
2023-02-01T10:41:04.725Z,100992.16
2023-02-01T10:43:38.649Z,100990.66
2023-02-01T10:46:06.522Z,100981.94
2023-02-01T10:48:35.805Z,100986.22
2023-02-01T10:51:09.368Z,100976.38
2023-02-01T10:53:47.134Z,100975.19
2023-02-01T10:56:18.701Z,100979.75
2023-02-01T10:58:49.462Z,100972.03
2023-02-01T11:01:21.462Z,100959.41
2023-02-01T11:03:55.623Z,100931.53
2023-02-01T11:06:35.593Z,100943.72
2023-02-01T11:09:29.188Z,100936.00
2023-02-01T11:11:59.731Z,100945.66
2023-02-01T11:14:39.794Z,100941.53
2023-02-01T11:17:29.633Z,100945.78
2023-02-01T11:20:10.655Z,100951.38
2023-02-01T11:22:38.650Z,100936.97
2023-02-01T11:25:12.141Z,100947.97
2023-02-01T11:27:54.371Z,100940.69
2023-02-01T11:30:35.745Z,100930.09
2023-02-01T11:33:06.879Z,100924.00
2023-02-01T11:35:44.711Z,100929.63
2023-02-01T11:38:27.650Z,100919.16
2023-02-01T11:41:14.417Z,100916.72
2023-02-01T11:43:54.640Z,100898.00
2023-02-01T11:46:28.625Z,100903.63
2023-02-01T11:49:15.248Z,100913.06
2023-02-01T11:51:56.965Z,100905.34
2023-02-01T11:54:39.164Z,100888.19
2023-02-01T11:57:26.837Z,100887.28
2023-02-01T12:00:10.169Z,100880.09
2023-02-01T12:03:06.995Z,100886.34
2023-02-01T12:05:47.344Z,100897.75
2023-02-01T12:08:42.307Z,100897.66
2023-02-01T12:11:29.683Z,100883.38
2023-02-01T12:14:07.894Z,100883.69
2023-02-01T12:16:44.743Z,100885.47
2023-02-01T12:19:40.013Z,100888.13
2023-02-01T12:22:24.551Z,100884.31
2023-02-01T12:25:20.585Z,100887.94
2023-02-01T12:28:18.075Z,100875.88
2023-02-01T12:31:16.512Z,100897.19
2023-02-01T12:33:59.147Z,100896.88
2023-02-01T12:36:35.497Z,100888.34
2023-02-01T12:39:14.041Z,100880.72
2023-02-01T12:41:52.036Z,100879.66
2023-02-01T12:44:33.089Z,100868.06
2023-02-01T12:47:13.445Z,100847.84
2023-02-01T12:49:55.469Z,100855.59
2023-02-01T12:52:35.508Z,100848.91
2023-02-01T12:55:09.179Z,100853.97
2023-02-01T12:57:42.005Z,100842.16
2023-02-01T13:03:29.004Z,100849.34
2023-02-01T13:06:03.600Z,100855.59
2023-02-01T13:08:41.191Z,100851.03
2023-02-01T13:11:19.063Z,100849.56
2023-02-01T13:14:00.825Z,100831.09
2023-02-01T13:16:34.864Z,100831.50
2023-02-01T13:19:11.514Z,100825.69
2023-02-01T13:21:42.864Z,100828.53
2023-02-01T13:24:26.825Z,100832.22
2023-02-01T13:26:58.927Z,100838.88
2023-02-01T13:29:32.779Z,100833.81
2023-02-01T13:33:51.026Z,100821.56
2023-02-01T13:35:35.116Z,100817.88
2023-02-01T13:38:17.685Z,100818.38
2023-02-01T13:40:51.199Z,100808.97
2023-02-01T13:43:27.095Z,100804.84
2023-02-01T13:45:59.779Z,100807.72
2023-02-01T13:48:34.653Z,100813.41
2023-02-01T13:51:03.034Z,100811.41
2023-02-01T13:53:33.917Z,100810.78
2023-02-01T13:56:03.767Z,100793.00
2023-02-01T13:58:34.778Z,100793.41
2023-02-01T14:01:42.360Z,100802.97
2023-02-01T14:04:52.359Z,100818.75
2023-02-01T14:07:22.663Z,100813.56
2023-02-01T14:09:54.459Z,100799.38
2023-02-01T14:12:46.020Z,100806.59
2023-02-01T14:15:25.089Z,100814.16
2023-02-01T14:17:54.983Z,100816.94
2023-02-01T14:20:49.779Z,100823.81
2023-02-01T14:23:31.482Z,100808.22
2023-02-01T14:26:23.751Z,100816.84
2023-02-01T14:29:00.146Z,100817.59
2023-02-01T14:31:50.048Z,100831.53
2023-02-01T14:34:53.935Z,100822.56
2023-02-01T14:37:55.524Z,100811.66
2023-02-01T14:40:28.636Z,100833.34
2023-02-01T14:43:51.657Z,100837.34
2023-02-01T14:46:21.218Z,100853.88
2023-02-01T14:48:49.454Z,100850.81
2023-02-01T14:51:24.645Z,100878.75
2023-02-01T14:53:52.770Z,100867.22
2023-02-01T14:56:25.552Z,100870.34
2023-02-01T14:58:59.139Z,100872.91
2023-02-01T15:01:30.554Z,100867.09
2023-02-01T15:04:05.875Z,100874.19
2023-02-01T15:06:40.672Z,100878.63
2023-02-01T15:09:13.943Z,100886.06
2023-02-01T15:12:00.680Z,100891.06
2023-02-01T15:14:32.641Z,100887.44
2023-02-01T15:17:03.606Z,100881.03
2023-02-01T15:20:01.321Z,100878.25
2023-02-01T15:22:57.675Z,100887.75
2023-02-01T15:25:28.932Z,100888.28
2023-02-01T15:28:00.360Z,100892.84
2023-02-01T15:30:32.457Z,100892.31
2023-02-01T15:33:08.569Z,100886.81
2023-02-01T15:35:44.369Z,100882.25
2023-02-01T15:38:57.638Z,100863.59
2023-02-01T15:41:32.034Z,100860.88
2023-02-01T15:44:07.761Z,100857.03
2023-02-01T15:46:43.484Z,100860.53
2023-02-01T15:49:22.392Z,100884.97
2023-02-01T15:51:51.947Z,100891.03
2023-02-01T15:54:28.051Z,100897.56
2023-02-01T15:57:01.862Z,100900.63
2023-02-01T15:59:34.290Z,100907.44
2023-02-01T16:02:05.251Z,100912.28
2023-02-01T16:04:36.006Z,100907.81
2023-02-01T16:07:05.861Z,100920.88
2023-02-01T16:09:43.457Z,100918.44
2023-02-01T16:12:31.160Z,100906.47
2023-02-01T16:15:00.143Z,100924.47
2023-02-01T16:17:28.659Z,100916.53
2023-02-01T16:19:56.384Z,100912.94
2023-02-01T16:22:24.505Z,100924.88
2023-02-01T16:24:53.731Z,100935.47
2023-02-01T16:27:28.673Z,100938.66
2023-02-01T16:29:57.679Z,100942.78
2023-02-01T16:32:27.757Z,100940.13
2023-02-01T16:34:58.071Z,100944.66
2023-02-01T16:37:28.896Z,100955.25
2023-02-01T16:42:43.785Z,100961.81
2023-02-01T16:45:11.930Z,100962.97
2023-02-01T16:47:46.000Z,100963.28
2023-02-01T16:50:23.373Z,100993.53
2023-02-01T16:52:55.845Z,100985.84
2023-02-01T16:55:27.535Z,100975.16
2023-02-01T16:57:55.449Z,100993.66
2023-02-01T17:00:25.839Z,100995.25
2023-02-01T17:02:55.076Z,101000.19
2023-02-01T17:05:24.040Z,101003.06
2023-02-01T17:07:53.219Z,100997.78
2023-02-01T17:10:33.256Z,100997.25
2023-02-01T17:13:02.179Z,101003.56
2023-02-01T17:15:36.738Z,101009.19
2023-02-01T17:18:05.270Z,101009.38
2023-02-01T17:20:33.916Z,101030.34
2023-02-01T17:23:03.245Z,101025.47
2023-02-01T17:25:36.160Z,101021.44
2023-02-01T17:28:04.216Z,101015.38
2023-02-01T17:30:32.883Z,101015.47
2023-02-01T17:33:03.669Z,101018.53
2023-02-01T17:35:40.094Z,101028.16
2023-02-01T17:38:13.073Z,101015.16
2023-02-01T17:40:45.741Z,101027.06
2023-02-01T17:43:21.313Z,101028.78
2023-02-01T17:45:52.975Z,101043.41
2023-02-01T17:48:27.893Z,101027.28
2023-02-01T17:50:59.365Z,101032.84
2023-02-01T17:53:28.953Z,101035.03
2023-02-01T17:55:59.020Z,101037.88
2023-02-01T17:58:34.939Z,101039.41
2023-02-01T18:01:03.299Z,101047.44
2023-02-01T18:03:32.844Z,101038.38
2023-02-01T18:06:03.432Z,101030.34
2023-02-01T18:08:33.232Z,101037.59
2023-02-01T18:11:03.690Z,101030.94
2023-02-01T18:13:33.869Z,101029.41
2023-02-01T18:16:04.722Z,101037.22
2023-02-01T18:18:34.073Z,101024.69
2023-02-01T18:21:02.044Z,101035.38
2023-02-01T18:23:29.863Z,101043.84
2023-02-01T18:25:57.625Z,101038.00
2023-02-01T18:28:31.836Z,101046.03
2023-02-01T18:31:02.937Z,101039.97
2023-02-01T18:33:31.567Z,101048.84
2023-02-01T18:35:59.332Z,101046.28
2023-02-01T18:38:29.699Z,101050.16
2023-02-01T18:41:00.928Z,101044.50
2023-02-01T18:43:29.974Z,101045.06
2023-02-01T18:45:58.084Z,101047.31
2023-02-01T18:48:51.336Z,101048.94
2023-02-01T18:51:21.237Z,101043.84
2023-02-01T18:53:49.496Z,101051.94
2023-02-01T18:56:19.110Z,101048.66
2023-02-01T18:58:50.414Z,101062.97
2023-02-01T19:01:26.260Z,101069.09
2023-02-01T19:03:56.290Z,101078.44
2023-02-01T19:06:29.527Z,101070.25
2023-02-01T19:08:58.217Z,101060.16
2023-02-01T19:11:28.624Z,101073.66
2023-02-01T19:13:58.021Z,101065.44
2023-02-01T19:16:26.114Z,101053.56
2023-02-01T19:18:55.297Z,101048.50
2023-02-01T19:21:24.975Z,101045.19
2023-02-01T19:23:52.664Z,101048.78
2023-02-01T19:26:28.034Z,101049.25
2023-02-01T19:29:00.512Z,101039.75
2023-02-01T19:31:28.814Z,101040.75
2023-02-01T19:33:59.091Z,101042.44
2023-02-01T19:36:27.132Z,101043.59
2023-02-01T19:38:58.407Z,101054.69
2023-02-01T19:41:29.522Z,101055.66
2023-02-01T19:43:58.671Z,101063.00
2023-02-01T19:46:27.865Z,101064.72
2023-02-01T19:48:57.913Z,101068.78
2023-02-01T19:51:29.878Z,101064.28
2023-02-01T19:53:58.413Z,101070.47
2023-02-01T19:56:26.097Z,101073.50
2023-02-01T19:58:57.373Z,101074.06
2023-02-01T20:01:25.331Z,101068.22
2023-02-01T20:04:02.583Z,101063.13
2023-02-01T20:06:31.035Z,101064.09
2023-02-01T20:09:05.445Z,101060.78
2023-02-01T20:11:33.763Z,101065.50
2023-02-01T20:14:02.967Z,101059.09
2023-02-01T20:16:30.671Z,101059.19
2023-02-01T20:19:05.806Z,101066.53
2023-02-01T20:21:38.123Z,101069.34
2023-02-01T20:27:00.007Z,101074.84
2023-02-01T20:29:29.656Z,101072.25
2023-02-01T20:31:58.680Z,101077.47
2023-02-01T20:34:31.884Z,101073.22
2023-02-01T20:37:00.257Z,101072.63
2023-02-01T20:39:30.350Z,101072.75
2023-02-01T20:41:58.012Z,101076.31
2023-02-01T20:44:26.861Z,101073.00
2023-02-01T20:46:58.177Z,101079.13
2023-02-01T20:49:26.071Z,101080.47
2023-02-01T20:51:57.741Z,101074.44
2023-02-01T20:54:29.683Z,101080.81
2023-02-01T20:56:57.780Z,101086.00
2023-02-01T20:59:28.007Z,101090.72
2023-02-01T21:01:57.788Z,101086.47
2023-02-01T21:04:28.341Z,101093.63
2023-02-01T21:07:00.894Z,101094.38
2023-02-01T21:09:29.945Z,101088.47
2023-02-01T21:12:02.793Z,101096.38
2023-02-01T21:14:31.296Z,101086.09
2023-02-01T21:17:00.960Z,101076.28
2023-02-01T21:19:44.920Z,101083.19
2023-02-01T21:22:20.080Z,101082.41
2023-02-01T21:24:48.719Z,101074.44
2023-02-01T21:27:16.372Z,101072.53
2023-02-01T21:29:44.375Z,101083.25
2023-02-01T21:32:15.194Z,101078.66
2023-02-01T21:34:44.318Z,101080.34
2023-02-01T21:37:12.308Z,101086.66
2023-02-01T21:39:43.631Z,101074.34
2023-02-01T21:42:18.729Z,101084.03
2023-02-01T21:44:48.320Z,101080.53
2023-02-01T21:47:18.194Z,101079.59
2023-02-01T21:49:48.582Z,101087.63
2023-02-01T21:52:17.456Z,101097.22
2023-02-01T21:54:47.696Z,101093.72
2023-02-01T21:57:15.357Z,101096.91
2023-02-01T21:59:46.696Z,101099.56
2023-02-01T22:02:31.817Z,101103.13
2023-02-01T22:05:00.421Z,101108.13
2023-02-01T22:07:28.091Z,101116.72
2023-02-01T22:09:57.116Z,101128.03
2023-02-01T22:12:24.780Z,101140.84
2023-02-01T22:14:55.478Z,101129.66
2023-02-01T22:17:25.237Z,101126.28
2023-02-01T22:19:52.816Z,101129.06
2023-02-01T22:22:21.415Z,101142.38
2023-02-01T22:24:49.042Z,101143.47
2023-02-01T22:27:18.229Z,101145.97
2023-02-01T22:29:45.891Z,101151.69
2023-02-01T22:32:14.269Z,101159.63
2023-02-01T22:34:52.077Z,101153.59
2023-02-01T22:37:19.791Z,101158.78
2023-02-01T22:39:48.696Z,101153.13
2023-02-01T22:42:19.970Z,101162.16
2023-02-01T22:44:48.213Z,101162.94
2023-02-01T22:47:20.780Z,101167.53
2023-02-01T22:49:48.579Z,101167.44
2023-02-01T22:52:16.759Z,101166.59
2023-02-01T22:54:48.288Z,101168.13
2023-02-01T22:57:16.034Z,101172.53
2023-02-01T22:59:45.036Z,101180.34
2023-02-01T23:02:18.149Z,101192.69
2023-02-01T23:04:46.073Z,101192.81
2023-02-01T23:07:15.132Z,101187.31
2023-02-01T23:09:42.792Z,101187.06
2023-02-01T23:12:13.471Z,101194.28
2023-02-01T23:15:08.220Z,101191.50
2023-02-01T23:17:38.162Z,101199.50
2023-02-01T23:20:08.642Z,101190.81
2023-02-01T23:22:38.661Z,101196.88
2023-02-01T23:25:07.148Z,101195.72
2023-02-01T23:27:34.798Z,101189.69
2023-02-01T23:30:03.347Z,101207.41
2023-02-01T23:32:30.966Z,101208.44
2023-02-01T23:35:00.048Z,101204.84
2023-02-01T23:37:27.922Z,101215.50
2023-02-01T23:39:55.585Z,101212.88
2023-02-01T23:42:33.679Z,101228.91
2023-02-01T23:45:02.361Z,101225.22
2023-02-01T23:47:30.266Z,101229.47
2023-02-01T23:49:58.284Z,101217.56
2023-02-01T23:52:27.299Z,101220.03
2023-02-01T23:54:55.669Z,101214.06
2023-02-01T23:57:26.045Z,101214.06
2023-02-01T23:59:54.060Z,101216.44
